Burnsville, NC (28714)

10:48 PM EDT on July 02, 2015 (GMT -0400)
Mountain Air | | Change Station
CLOSE
Current Station
Personal Weather Station
Location: Burnsville, NC
Elevation: 4390 ft
Nearby Weather Stations

Elev 4390 ft 35.89 °N, 82.29 °W | Updated 3 minutes ago

Partly Cloudy
Partly Cloudy
62.6 °F
Feels Like 62.6 °F
N
0.0
Wind Variable Wind from South
Gusts 2.0 mph

Today
High -- | Low -- °F
--% Chance of Precip.
Yesterday
High -- | Low -- °F
Precip. -- in
6:16 AM 8:49 PM
Full, 99% visible
Pressure 29.94 in
Visibility 10.0 miles
Clouds Scattered Clouds 9000 ft
Dew Point 60 °F
Humidity 92%
Rainfall -999.00 in
Snow Depth Not available.
UV 0 out of 12
Pollen .50 out of 12
Air Quality Not available.
Flu Activity Not available.
METAR KAVL 030154Z 00000KT 10SM SCT090 21/18 A3001 RMK AO2 SLP139 T02060183

More Conditions Fewer Conditions

Pressure 29.94 in
Visibility 10.0 miles
Clouds Scattered Clouds 9000 ft
Dew Point 60 °F
Humidity 92%
Rainfall -999.00 in
Snow Depth Not available.
UV 0 out of 12
Pollen .50 out of 12
Air Quality Not available.
Flu Activity Not available.
METAR KAVL 030154Z 00000KT 10SM SCT090 21/18 A3001 RMK AO2 SLP139 T02060183

More Conditions Fewer Conditions

10-Day Weather Forecast

×

Almanac

Astronomy

Jul. 02, 2015 Rise Set
Actual Time
Civil Twilight
Nautical Twilight
Astronomical Twilight
Moon
Length of Visible Light
Length of Day
Tomorrow will be .
, % of the Moon is Illuminated

Today's Extremes

State Highs State Lows

Community

WunderPhotos

Upload Photos

1,834,594 photos uploaded!

WunderBlogs® & News

Nearby

Air Quality

  Air Quality AQ Index Pollutant
Not available.

Snow Depth

Station Depth Elevation

Earthquake Activity

City Distance Mag. Time & Date
Minimum magnitude displayed is 2.5.

Coastal Water Temperatures

Place Temperature

Stations

Nearby Weather Stations

Station Location Temp. Windchill Dew Point Humidity Wind Precip. Elev Updated Type